createdAt,value
2019-04-30T00:00:45.498Z,8.51
2019-04-30T00:03:32.161Z,8.47
2019-04-30T00:06:03.028Z,8.49
2019-04-30T00:08:37.563Z,8.50
2019-04-30T00:11:06.341Z,8.50
2019-04-30T00:13:39.878Z,8.47
2019-04-30T00:16:10.094Z,8.48
2019-04-30T00:18:55.196Z,8.46
2019-04-30T00:21:15.213Z,8.49
2019-04-30T00:23:45.929Z,8.47
2019-04-30T00:26:17.251Z,8.46
2019-04-30T00:28:47.924Z,8.36
2019-04-30T00:31:23.813Z,8.39
2019-04-30T00:33:52.692Z,8.40
2019-04-30T00:36:27.535Z,8.37
2019-04-30T00:38:55.096Z,8.36
2019-04-30T00:41:25.716Z,8.40
2019-04-30T00:43:55.838Z,8.38
2019-04-30T00:46:29.294Z,8.34
2019-04-30T00:49:08.797Z,8.39
2019-04-30T00:51:31.420Z,8.37
2019-04-30T00:54:01.593Z,8.38
2019-04-30T00:56:31.807Z,8.36
2019-04-30T00:59:02.666Z,8.39
2019-04-30T01:02:08.161Z,8.39
2019-04-30T01:04:47.021Z,8.40
2019-04-30T01:07:17.454Z,8.41
2019-04-30T01:09:49.840Z,8.41
2019-04-30T01:12:25.503Z,8.40
2019-04-30T01:14:51.522Z,8.40
2019-04-30T01:17:21.735Z,8.36
2019-04-30T01:19:54.521Z,8.30
2019-04-30T01:22:29.206Z,8.34
2019-04-30T01:25:01.302Z,8.37
2019-04-30T01:27:29.405Z,8.41
2019-04-30T01:30:00.168Z,8.41
2019-04-30T01:32:30.672Z,8.44
2019-04-30T01:35:00.955Z,8.44
2019-04-30T01:37:32.934Z,8.39
2019-04-30T01:40:10.536Z,8.39
2019-04-30T01:42:35.599Z,8.39
2019-04-30T01:45:06.107Z,8.40
2019-04-30T01:47:36.571Z,8.38
2019-04-30T01:50:07.152Z,8.37
2019-04-30T01:52:55.599Z,8.39
2019-04-30T01:55:41.458Z,8.37
2019-04-30T01:58:21.318Z,8.40
2019-04-30T02:00:54.549Z,8.42
2019-04-30T02:03:25.059Z,8.41
2019-04-30T02:05:55.392Z,8.43
2019-04-30T02:08:25.612Z,8.46
2019-04-30T02:10:55.796Z,8.43
2019-04-30T02:13:26.243Z,8.44
2019-04-30T02:15:59.096Z,8.45
2019-04-30T02:18:29.831Z,8.47
2019-04-30T02:21:00.186Z,8.49
2019-04-30T02:23:30.496Z,8.48
2019-04-30T02:26:01.199Z,8.46
2019-04-30T02:28:31.648Z,8.50
2019-04-30T02:31:02.051Z,8.53
2019-04-30T02:33:33.841Z,8.54
2019-04-30T02:36:14.909Z,8.55
2019-04-30T02:38:49.361Z,8.55
2019-04-30T02:41:20.775Z,8.55
2019-04-30T02:43:53.361Z,8.50
2019-04-30T02:46:24.981Z,8.51
2019-04-30T02:48:55.894Z,8.49
2019-04-30T02:51:29.900Z,8.44
2019-04-30T02:54:10.294Z,8.41
2019-04-30T02:56:42.071Z,8.44
2019-04-30T02:59:12.337Z,8.45
2019-04-30T03:01:42.574Z,8.45
2019-04-30T03:04:12.729Z,8.48
2019-04-30T03:06:42.860Z,8.48
2019-04-30T03:09:13.141Z,8.51
2019-04-30T03:11:43.403Z,8.49
2019-04-30T03:14:13.736Z,8.49
2019-04-30T03:17:05.892Z,8.50
2019-04-30T03:19:50.250Z,8.49
2019-04-30T03:22:23.385Z,8.49
2019-04-30T03:24:53.961Z,8.52
2019-04-30T03:27:24.806Z,8.55
2019-04-30T03:29:55.340Z,8.57
2019-04-30T03:32:25.549Z,8.57
2019-04-30T03:34:55.850Z,8.59
2019-04-30T03:37:26.077Z,8.58
2019-04-30T03:39:56.505Z,8.60
2019-04-30T03:42:29.444Z,8.61
2019-04-30T03:45:00.383Z,8.62
2019-04-30T03:47:30.885Z,8.59
2019-04-30T03:50:01.251Z,8.59
2019-04-30T03:52:31.385Z,8.60
2019-04-30T03:55:02.917Z,8.61
2019-04-30T03:57:33.516Z,8.61
2019-04-30T04:00:04.407Z,8.61
2019-04-30T04:02:45.621Z,8.61
2019-04-30T04:05:31.067Z,8.59
2019-04-30T04:08:13.088Z,8.61
2019-04-30T04:11:02.385Z,8.61
2019-04-30T04:13:33.189Z,8.63
2019-04-30T04:16:03.800Z,8.64
2019-04-30T04:18:34.002Z,8.65
2019-04-30T04:21:11.657Z,8.68
2019-04-30T04:23:39.666Z,8.68
2019-04-30T04:26:09.437Z,8.68
2019-04-30T04:28:43.264Z,8.66
2019-04-30T04:31:13.231Z,8.68
2019-04-30T04:33:43.492Z,8.63
2019-04-30T04:36:13.790Z,8.63
2019-04-30T04:38:43.949Z,8.64
2019-04-30T04:41:14.321Z,8.64
2019-04-30T04:43:44.500Z,8.64
2019-04-30T04:46:14.742Z,8.66
2019-04-30T04:48:45.053Z,8.65
2019-04-30T04:51:31.270Z,8.65
2019-04-30T04:53:49.808Z,8.65
2019-04-30T04:56:19.580Z,8.68
2019-04-30T04:58:50.416Z,8.66
2019-04-30T05:01:20.726Z,8.71
2019-04-30T05:03:51.023Z,8.71
2019-04-30T05:06:22.293Z,8.72
2019-04-30T05:08:52.881Z,8.74
2019-04-30T05:11:24.505Z,8.73
2019-04-30T05:13:54.667Z,8.77
2019-04-30T05:16:24.821Z,8.82
2019-04-30T05:18:55.095Z,8.84
2019-04-30T05:21:25.382Z,8.83
2019-04-30T05:23:55.827Z,8.86
2019-04-30T05:26:26.430Z,8.87
2019-04-30T05:28:56.863Z,8.93
2019-04-30T05:31:28.949Z,8.91
2019-04-30T05:33:59.229Z,8.90
2019-04-30T05:36:29.377Z,8.93
2019-04-30T05:38:59.768Z,8.98
2019-04-30T05:41:29.948Z,9.02
2019-04-30T05:44:00.151Z,9.05
2019-04-30T05:46:30.390Z,9.08
2019-04-30T05:49:00.619Z,9.09
2019-04-30T05:51:31.129Z,9.11
2019-04-30T05:54:01.572Z,9.09
2019-04-30T05:56:31.749Z,9.11
2019-04-30T05:59:02.421Z,9.10
2019-04-30T06:01:33.012Z,9.12
2019-04-30T06:04:03.469Z,9.13
2019-04-30T06:06:33.747Z,9.14
2019-04-30T06:09:14.655Z,9.12
2019-04-30T06:12:11.443Z,9.13
2019-04-30T06:14:49.906Z,9.17
2019-04-30T06:17:19.857Z,9.21
2019-04-30T06:19:51.689Z,9.25
2019-04-30T06:22:22.399Z,9.29
2019-04-30T06:24:52.592Z,9.35
2019-04-30T06:27:23.118Z,9.39
2019-04-30T06:29:53.347Z,9.46
2019-04-30T06:32:23.519Z,9.50
2019-04-30T06:34:53.859Z,9.52
2019-04-30T06:37:24.058Z,9.54
2019-04-30T06:39:54.639Z,9.54
2019-04-30T06:42:25.168Z,9.53
2019-04-30T06:44:55.587Z,9.59
2019-04-30T06:47:33.234Z,9.67
2019-04-30T06:50:01.277Z,9.71
2019-04-30T06:52:30.860Z,9.73
2019-04-30T06:55:01.135Z,9.75
2019-04-30T06:57:31.552Z,9.81
2019-04-30T07:00:02.525Z,9.84
2019-04-30T07:02:33.254Z,9.90
2019-04-30T07:05:03.667Z,9.95
2019-04-30T07:07:38.953Z,10.01
2019-04-30T07:10:29.475Z,9.99
2019-04-30T07:13:31.153Z,9.94
2019-04-30T07:16:01.773Z,9.97
2019-04-30T07:18:32.137Z,10.00
2019-04-30T07:21:02.425Z,10.05
2019-04-30T07:23:32.714Z,10.09
2019-04-30T07:26:02.929Z,10.12
2019-04-30T07:28:44.675Z,10.14
2019-04-30T07:31:13.113Z,10.13
2019-04-30T07:33:39.469Z,10.09
2019-04-30T07:36:11.392Z,10.15
2019-04-30T07:38:51.572Z,10.14
2019-04-30T07:41:13.782Z,10.15
2019-04-30T07:43:44.083Z,10.12
2019-04-30T07:46:14.507Z,10.13
2019-04-30T07:48:44.642Z,10.21
2019-04-30T07:51:15.656Z,10.27
2019-04-30T07:53:46.794Z,10.23
2019-04-30T07:56:25.621Z,10.31
2019-04-30T07:58:50.440Z,10.21
2019-04-30T08:01:21.129Z,10.28
2019-04-30T08:04:00.522Z,10.39
2019-04-30T08:06:31.781Z,10.44
2019-04-30T08:09:05.035Z,10.48
2019-04-30T08:11:40.911Z,10.54
2019-04-30T08:14:09.769Z,10.55
2019-04-30T08:16:41.018Z,10.54
2019-04-30T08:19:11.213Z,10.56
2019-04-30T08:21:41.496Z,10.62
2019-04-30T08:24:11.673Z,10.64
2019-04-30T08:26:41.849Z,10.64
2019-04-30T08:29:12.026Z,10.64
2019-04-30T08:31:42.232Z,10.61
2019-04-30T08:34:12.677Z,10.60
2019-04-30T08:36:43.022Z,10.59
2019-04-30T08:39:13.554Z,10.63
2019-04-30T08:41:43.882Z,10.64
2019-04-30T08:44:14.242Z,10.66
2019-04-30T08:46:44.710Z,10.70
2019-04-30T08:49:15.920Z,10.67
2019-04-30T08:51:48.783Z,10.55
2019-04-30T08:54:19.745Z,10.50
2019-04-30T08:56:50.466Z,10.54
2019-04-30T08:59:21.221Z,10.59
2019-04-30T09:01:51.647Z,10.60
2019-04-30T09:04:21.963Z,10.53
2019-04-30T09:06:52.203Z,10.54
2019-04-30T09:09:23.631Z,10.50
2019-04-30T09:11:55.766Z,10.47
2019-04-30T09:14:26.221Z,10.48
2019-04-30T09:16:56.380Z,10.56
2019-04-30T09:19:26.659Z,10.59
2019-04-30T09:21:56.770Z,10.54
2019-04-30T09:24:30.791Z,10.59
2019-04-30T09:26:59.400Z,10.62
2019-04-30T09:29:30.719Z,10.66
2019-04-30T09:32:01.211Z,10.67
2019-04-30T09:34:31.700Z,10.69
2019-04-30T09:37:02.285Z,10.74
2019-04-30T09:39:32.958Z,10.81
2019-04-30T09:42:03.259Z,10.89
2019-04-30T09:44:34.579Z,11.08
2019-04-30T09:47:05.445Z,11.15
2019-04-30T09:49:35.680Z,11.33
2019-04-30T09:52:06.194Z,11.40
2019-04-30T09:54:36.515Z,11.41
2019-04-30T09:57:09.112Z,11.31
2019-04-30T09:59:39.925Z,11.28
2019-04-30T10:02:10.567Z,11.20
2019-04-30T10:04:41.258Z,11.32
2019-04-30T10:07:11.954Z,11.31
2019-04-30T10:09:42.429Z,11.41
2019-04-30T10:12:14.689Z,11.47
2019-04-30T10:14:44.929Z,11.46
2019-04-30T10:17:32.907Z,11.35
2019-04-30T10:20:03.923Z,11.39
2019-04-30T10:22:34.552Z,11.17
2019-04-30T10:25:05.312Z,11.29
2019-04-30T10:27:36.143Z,11.32
2019-04-30T10:30:09.386Z,11.44
2019-04-30T10:32:40.290Z,11.51
2019-04-30T10:35:10.853Z,11.61
2019-04-30T10:37:41.183Z,11.65
2019-04-30T10:40:11.909Z,11.67
2019-04-30T10:42:42.092Z,11.65
2019-04-30T10:45:12.358Z,11.45
2019-04-30T10:47:42.811Z,11.16
2019-04-30T10:50:13.592Z,11.27
2019-04-30T10:52:43.959Z,11.29
2019-04-30T10:55:14.335Z,11.30
2019-04-30T10:57:44.671Z,11.37
2019-04-30T11:00:15.380Z,11.34
2019-04-30T11:02:46.035Z,11.47
2019-04-30T11:05:16.232Z,11.57
2019-04-30T11:07:49.435Z,11.48
2019-04-30T11:10:19.352Z,11.48
2019-04-30T11:12:49.624Z,11.30
2019-04-30T11:15:20.844Z,11.33
2019-04-30T11:17:51.369Z,11.48
2019-04-30T11:20:22.404Z,11.55
2019-04-30T11:22:54.768Z,11.67
2019-04-30T11:25:25.962Z,11.80
2019-04-30T11:27:56.977Z,11.72
2019-04-30T11:30:29.596Z,11.45
2019-04-30T11:33:00.105Z,11.56
2019-04-30T11:35:31.017Z,11.64
2019-04-30T11:38:01.530Z,11.57
2019-04-30T11:40:37.033Z,11.63
2019-04-30T11:43:04.950Z,11.60
2019-04-30T11:46:25.518Z,11.56
2019-04-30T11:48:55.925Z,11.62
2019-04-30T11:51:27.050Z,11.72
2019-04-30T11:53:59.373Z,11.85
2019-04-30T11:56:31.100Z,12.14
2019-04-30T11:59:01.862Z,12.74
2019-04-30T12:01:32.895Z,13.31
2019-04-30T12:04:03.883Z,13.48
2019-04-30T12:06:34.414Z,14.32
2019-04-30T12:09:11.484Z,14.88
2019-04-30T12:11:42.267Z,17.26
2019-04-30T12:14:12.970Z,19.91
2019-04-30T12:16:43.827Z,22.69
2019-04-30T12:19:14.637Z,23.90
2019-04-30T12:21:44.075Z,25.54
2019-04-30T12:24:14.681Z,23.30
2019-04-30T12:26:45.465Z,22.76
2019-04-30T12:29:16.255Z,23.03
2019-04-30T12:31:46.785Z,23.10
2019-04-30T12:34:18.664Z,22.78
2019-04-30T12:36:49.721Z,18.96
2019-04-30T12:39:20.040Z,18.59
2019-04-30T12:41:50.700Z,18.98
2019-04-30T12:44:21.291Z,19.09
2019-04-30T12:46:52.441Z,18.88
2019-04-30T12:49:23.200Z,18.73
2019-04-30T12:52:12.326Z,17.99
2019-04-30T12:54:52.559Z,17.99
2019-04-30T12:57:35.212Z,18.38
2019-04-30T13:00:09.421Z,18.32
2019-04-30T13:02:40.044Z,20.35
2019-04-30T13:05:10.637Z,22.23
2019-04-30T13:07:41.396Z,22.15
2019-04-30T13:10:13.087Z,21.49
2019-04-30T13:12:45.265Z,19.69
2019-04-30T13:15:16.382Z,19.58
2019-04-30T13:17:49.939Z,19.35
2019-04-30T13:20:23.804Z,18.29
2019-04-30T13:22:51.255Z,18.55
2019-04-30T13:25:29.909Z,18.26
2019-04-30T13:27:56.790Z,18.25
2019-04-30T13:30:29.911Z,18.86
2019-04-30T13:33:15.965Z,19.99
2019-04-30T13:35:46.617Z,21.32
2019-04-30T13:38:45.037Z,21.96
2019-04-30T13:41:25.934Z,23.04
2019-04-30T13:44:09.492Z,22.42
2019-04-30T13:46:39.687Z,21.55
2019-04-30T13:49:10.190Z,20.08
2019-04-30T13:51:42.862Z,19.55
2019-04-30T13:54:12.492Z,18.34
2019-04-30T13:56:42.716Z,18.32
2019-04-30T13:59:12.922Z,18.34
2019-04-30T14:01:43.579Z,19.38
2019-04-30T14:04:33.317Z,18.90
2019-04-30T14:07:25.915Z,19.09
2019-04-30T14:09:56.741Z,18.99
2019-04-30T14:12:27.389Z,18.84
2019-04-30T14:14:59.202Z,18.88
2019-04-30T14:17:30.796Z,17.17
2019-04-30T14:20:01.361Z,17.78
2019-04-30T14:22:31.625Z,17.36
2019-04-30T14:25:02.476Z,17.67
2019-04-30T14:27:32.803Z,17.43
2019-04-30T14:30:03.061Z,17.30
2019-04-30T14:32:33.737Z,17.00
2019-04-30T14:35:04.933Z,17.18
2019-04-30T14:37:35.254Z,16.79
2019-04-30T14:40:09.892Z,16.73
2019-04-30T14:42:45.860Z,16.63
2019-04-30T14:45:21.654Z,16.52
2019-04-30T14:48:05.906Z,16.71
2019-04-30T14:50:38.448Z,16.31
2019-04-30T14:53:33.984Z,16.72
2019-04-30T14:56:29.604Z,16.88
2019-04-30T14:59:22.100Z,16.56
2019-04-30T15:02:10.277Z,16.24
2019-04-30T15:04:40.480Z,16.03
2019-04-30T15:07:11.045Z,15.63
2019-04-30T15:09:41.561Z,15.99
2019-04-30T15:12:12.015Z,15.84
2019-04-30T15:14:42.390Z,15.94
2019-04-30T15:17:15.034Z,15.84
2019-04-30T15:19:45.772Z,16.10
2019-04-30T15:22:16.208Z,15.85
2019-04-30T15:24:46.628Z,16.11
2019-04-30T15:27:17.346Z,15.82
2019-04-30T15:29:56.910Z,15.82
2019-04-30T15:32:21.195Z,15.86
2019-04-30T15:34:51.621Z,15.94
2019-04-30T15:37:24.005Z,16.00
2019-04-30T15:39:54.250Z,15.98
2019-04-30T15:42:24.760Z,15.81
2019-04-30T15:44:55.090Z,15.82
2019-04-30T15:47:25.479Z,15.83
2019-04-30T15:49:55.822Z,15.69
2019-04-30T15:52:26.134Z,15.85
2019-04-30T15:54:56.328Z,15.90
2019-04-30T15:57:27.108Z,15.84
2019-04-30T15:59:57.619Z,15.65
2019-04-30T16:02:56.358Z,15.76
2019-04-30T16:05:42.241Z,15.69
2019-04-30T16:08:33.326Z,15.70
2019-04-30T16:11:29.490Z,15.72
2019-04-30T16:14:19.141Z,15.60
2019-04-30T16:17:14.663Z,15.29
2019-04-30T16:19:46.107Z,15.17
2019-04-30T16:22:16.628Z,15.20
2019-04-30T16:24:46.952Z,15.20
2019-04-30T16:27:19.142Z,15.29
2019-04-30T16:29:50.029Z,15.29
2019-04-30T16:32:21.332Z,15.27
2019-04-30T16:34:51.612Z,15.27
2019-04-30T16:37:22.061Z,15.20
2019-04-30T16:39:52.529Z,15.16
2019-04-30T16:42:22.984Z,15.23
2019-04-30T16:44:53.406Z,15.18
2019-04-30T16:47:24.109Z,15.28
2019-04-30T16:49:54.479Z,15.34
2019-04-30T16:52:24.795Z,15.38
2019-04-30T16:54:55.316Z,15.35
2019-04-30T16:57:25.936Z,15.20
2019-04-30T16:59:56.560Z,15.40
2019-04-30T17:02:29.337Z,15.43
2019-04-30T17:05:11.237Z,15.33
2019-04-30T17:08:09.398Z,15.26
2019-04-30T17:10:50.517Z,15.10
2019-04-30T17:13:26.096Z,14.96
2019-04-30T17:16:00.498Z,15.07
2019-04-30T17:18:30.882Z,15.01
2019-04-30T17:21:01.380Z,15.00
2019-04-30T17:23:31.889Z,14.82
2019-04-30T17:26:02.657Z,14.61
2019-04-30T17:28:34.070Z,14.65
2019-04-30T17:31:04.773Z,14.69
2019-04-30T17:33:35.137Z,14.64
2019-04-30T17:36:05.603Z,14.45
2019-04-30T17:38:35.822Z,14.32
2019-04-30T17:41:06.052Z,14.02
2019-04-30T17:43:36.632Z,13.98
2019-04-30T17:46:07.082Z,13.86
2019-04-30T17:48:39.284Z,13.69
2019-04-30T17:51:12.560Z,13.53
2019-04-30T17:54:00.339Z,13.28
2019-04-30T17:56:30.587Z,13.16
2019-04-30T17:59:01.026Z,12.95
2019-04-30T18:01:31.725Z,12.82
2019-04-30T18:04:02.194Z,12.65
2019-04-30T18:06:32.617Z,12.55
2019-04-30T18:09:03.581Z,12.41
2019-04-30T18:11:34.560Z,12.22
2019-04-30T18:14:05.377Z,12.11
2019-04-30T18:16:36.037Z,11.92
2019-04-30T18:19:28.665Z,11.76
2019-04-30T18:22:03.165Z,11.64
2019-04-30T18:24:55.997Z,11.49
2019-04-30T18:27:42.392Z,11.43
2019-04-30T18:30:03.309Z,11.21
2019-04-30T18:32:33.880Z,11.09
2019-04-30T18:35:04.594Z,10.96
2019-04-30T18:37:35.818Z,10.83
2019-04-30T18:40:09.581Z,10.71
2019-04-30T18:42:40.187Z,10.66
2019-04-30T18:45:11.507Z,10.54
2019-04-30T18:47:42.930Z,10.38
2019-04-30T18:50:13.737Z,10.26
2019-04-30T18:52:44.160Z,10.11
2019-04-30T18:55:15.073Z,10.00
2019-04-30T18:57:56.094Z,9.87
2019-04-30T19:00:24.951Z,9.79
2019-04-30T19:02:55.532Z,9.72
2019-04-30T19:05:30.926Z,9.60
2019-04-30T19:08:06.110Z,9.47
2019-04-30T19:11:00.286Z,9.39
2019-04-30T19:13:52.295Z,9.40
2019-04-30T19:16:43.321Z,9.32
2019-04-30T19:19:31.973Z,9.14
2019-04-30T19:22:02.495Z,8.91
2019-04-30T19:24:33.472Z,8.84
2019-04-30T19:27:03.995Z,8.77
2019-04-30T19:29:34.773Z,8.67
2019-04-30T19:32:05.329Z,8.67
2019-04-30T19:34:36.075Z,8.66
2019-04-30T19:37:08.569Z,8.63
2019-04-30T19:39:39.268Z,8.43
2019-04-30T19:42:10.110Z,8.34
2019-04-30T19:44:41.194Z,8.26
2019-04-30T19:47:12.519Z,8.20
2019-04-30T19:49:43.228Z,8.15
2019-04-30T19:52:14.362Z,8.07
2019-04-30T19:54:45.082Z,7.98
2019-04-30T19:57:15.790Z,7.94
2019-04-30T19:59:46.423Z,7.86
2019-04-30T20:02:19.084Z,7.88
2019-04-30T20:04:49.826Z,7.82
2019-04-30T20:07:20.635Z,7.77
2019-04-30T20:10:00.216Z,7.71
2019-04-30T20:12:23.230Z,7.58
2019-04-30T20:14:53.809Z,7.47
2019-04-30T20:17:24.307Z,7.39
2019-04-30T20:19:54.798Z,7.31
2019-04-30T20:22:25.812Z,7.26
2019-04-30T20:24:56.440Z,7.22
2019-04-30T20:27:26.862Z,7.17
2019-04-30T20:29:59.300Z,7.10
2019-04-30T20:32:36.044Z,7.05
2019-04-30T20:35:02.206Z,7.00
2019-04-30T20:37:34.480Z,6.95
2019-04-30T20:40:11.524Z,6.82
2019-04-30T20:42:42.111Z,6.73
2019-04-30T20:45:13.085Z,6.72
2019-04-30T20:47:43.588Z,6.67
2019-04-30T20:50:14.519Z,6.64
2019-04-30T20:52:46.386Z,6.69
2019-04-30T20:55:16.790Z,6.63
2019-04-30T20:57:47.201Z,6.56
2019-04-30T21:00:18.327Z,6.57
2019-04-30T21:02:49.034Z,6.55
2019-04-30T21:05:19.588Z,6.51
2019-04-30T21:07:49.927Z,6.45
2019-04-30T21:10:20.492Z,6.35
2019-04-30T21:12:51.269Z,6.24
2019-04-30T21:15:21.592Z,6.13
2019-04-30T21:17:52.102Z,6.02
2019-04-30T21:20:22.636Z,5.96
2019-04-30T21:22:53.181Z,5.96
2019-04-30T21:25:23.820Z,5.92
2019-04-30T21:27:54.225Z,5.87
2019-04-30T21:30:24.982Z,5.91
2019-04-30T21:33:09.336Z,5.88
2019-04-30T21:35:43.095Z,5.91
2019-04-30T21:38:14.845Z,5.88
2019-04-30T21:40:46.359Z,5.79
2019-04-30T21:43:17.762Z,5.76
2019-04-30T21:45:49.390Z,5.73
2019-04-30T21:48:20.501Z,5.61
2019-04-30T21:50:51.478Z,5.51
2019-04-30T21:53:21.865Z,5.44
2019-04-30T21:55:52.152Z,5.43
2019-04-30T21:58:22.836Z,5.41
2019-04-30T22:01:15.651Z,5.30
2019-04-30T22:03:47.528Z,5.24
2019-04-30T22:06:19.561Z,5.14
2019-04-30T22:08:50.173Z,5.08
2019-04-30T22:11:20.451Z,5.11
2019-04-30T22:13:50.790Z,5.10
2019-04-30T22:16:21.237Z,5.07
2019-04-30T22:19:12.185Z,5.11
2019-04-30T22:21:42.770Z,5.06
2019-04-30T22:24:13.332Z,4.99
2019-04-30T22:26:43.694Z,4.90
2019-04-30T22:29:14.052Z,4.81
2019-04-30T22:31:44.206Z,4.76
2019-04-30T22:34:14.744Z,4.77
2019-04-30T22:36:48.821Z,4.79
2019-04-30T22:39:41.484Z,4.77
2019-04-30T22:42:43.538Z,4.81
2019-04-30T22:45:23.190Z,4.72
2019-04-30T22:47:53.706Z,4.62
2019-04-30T22:50:23.836Z,4.50
2019-04-30T22:52:54.236Z,4.40
2019-04-30T22:55:24.504Z,4.38
2019-04-30T22:57:54.803Z,4.39
2019-04-30T23:00:34.125Z,4.33
2019-04-30T23:03:08.380Z,4.28
2019-04-30T23:05:38.773Z,4.26
2019-04-30T23:08:08.944Z,4.19
2019-04-30T23:10:39.095Z,4.16
2019-04-30T23:13:09.479Z,4.12
2019-04-30T23:15:40.002Z,4.06
2019-04-30T23:18:10.501Z,4.00
2019-04-30T23:20:40.777Z,4.04
2019-04-30T23:23:11.414Z,4.06
2019-04-30T23:25:41.629Z,4.08
2019-04-30T23:28:12.202Z,4.07
2019-04-30T23:30:42.627Z,4.09
2019-04-30T23:33:12.929Z,4.04
2019-04-30T23:35:43.079Z,3.99
2019-04-30T23:38:13.359Z,3.91
2019-04-30T23:40:51.290Z,3.83
2019-04-30T23:43:21.950Z,3.85
2019-04-30T23:45:52.609Z,3.79
2019-04-30T23:48:22.942Z,3.85
2019-04-30T23:50:53.120Z,3.82
2019-04-30T23:53:23.387Z,3.77
2019-04-30T23:55:53.641Z,3.61
2019-04-30T23:58:23.967Z,3.61
